Fruitland
, Fruitland
Last Weather Update:05/18/2012 9:00:00 AM
Date
ETo
ETc
Rain
Irrigation
Req
Temp
Max
Temp
Min
Temp
Avg
Avg RH
Avg Wind
Avg Solar
inches
inches
incehs
inches
F
F
F
%
%
watts/m2
04/01/2012 0.12" 0.00" 0.00" 0.00" 52.4° 29.6° 40.5° 48.4% 11.1 MPH 194.3w/m2
04/02/2012 0.14" 0.01" 0.00" 0.01" 52.3° 23.2° 36.7° 41.2% 6.6 MPH 240.9w/m2
04/03/2012 0.15" 0.01" 0.00" 0.01" 59.5° 19.6° 39.3° 54.8% 2.3 MPH 281.0w/m2
04/04/2012 0.18" 0.01" 0.00" 0.01" 66.6° 22.5° 44.6° 47.0% 3.8 MPH 281.1w/m2
04/05/2012 0.19" 0.02" 0.00" 0.02" 61.4° 25.4° 45.9° 29.6% 8.3 MPH 210.6w/m2
04/06/2012 0.12" 0.01" 0.00" 0.01" 39.8° 11.8° 30.5° 46.0% 10.4 MPH 262.8w/m2
04/07/2012 0.15" 0.02" 0.00" 0.02" 54.2° 6.3° 31.7° 44.6% 2.7 MPH 299.8w/m2
04/08/2012 0.17" 0.03" 0.00" 0.03" 67.2° 12.4° 41.3° 33.6% 1.9 MPH 302.6w/m2
04/09/2012 0.18" 0.03" 0.00" 0.03" 73.0° 18.6° 47.1° 30.6% 1.8 MPH 299.6w/m2
04/10/2012 0.22" 0.04" 0.00" 0.04" 72.3° 24.6° 49.6° 29.6% 5.3 MPH 273.1w/m2
04/11/2012 0.21" 0.05" 0.05" 0.01" 69.9° 22.5° 45.3° 45.3% 8.4 MPH 266.8w/m2
04/12/2012 0.08" 0.02" 0.00" 0.02" 46.0° 26.4° 35.8° 73.5% 5.7 MPH 177.6w/m2
04/13/2012 0.09" 0.02" 0.01" 0.02" 49.4° 25.3° 36.7° 63.8% 3.6 MPH 183.4w/m2
04/14/2012 0.08" 0.02" 0.17" -0.11" 48.7° 30.5° 35.9° 79.7% 2.4 MPH 167.5w/m2
04/15/2012 0.14" 0.04" 0.00" 0.04" 51.1° 26.3° 38.0° 53.7% 9.0 MPH 239.6w/m2
04/16/2012 0.17" 0.05" 0.00" 0.05" 55.3° 26.2° 41.0° 47.2% 5.3 MPH 292.4w/m2
04/17/2012 0.13" 0.04" 0.00" 0.04" 56.5° 26.4° 41.9° 61.6% 4.7 MPH 246.3w/m2
04/18/2012 0.09" 0.03" 0.00" 0.03" 56.5° 27.3° 42.0° 68.0% 4.9 MPH 118.4w/m2
04/19/2012 0.13" 0.05" 0.00" 0.05" 58.1° 26.7° 43.2° 60.9% 6.7 MPH 186.0w/m2
04/20/2012 0.19" 0.08" 0.00" 0.08" 66.7° 30.0° 49.4° 52.8% 5.4 MPH 288.8w/m2
04/21/2012 0.20" 0.08" 0.00" 0.08" 75.3° 32.5° 56.0° 37.2% 3.9 MPH 264.1w/m2
04/22/2012 0.17" 0.07" 0.00" 0.07" 80.3° 29.0° 57.1° 35.6% 2.0 MPH 234.3w/m2
04/23/2012 0.18" 0.08" 0.00" 0.08" 80.6° 29.9° 56.2° 40.3% 2.8 MPH 234.8w/m2
04/24/2012 0.25" 0.12" 0.00" 0.12" 78.6° 35.8° 59.0° 31.3% 6.2 MPH 277.5w/m2
04/25/2012 0.13" 0.06" 0.00" 0.06" 67.4° 42.4° 56.9° 34.9% 4.6 MPH 123.8w/m2
04/26/2012 0.12" 0.06" 0.01" 0.06" 70.9° 34.3° 49.3° 62.1% 4.7 MPH 162.7w/m2
04/27/2012 0.17" 0.09" 0.00" 0.09" 49.5° 31.6° 39.8° 46.2% 13.9 MPH 304.4w/m2
04/28/2012 0.19" 0.10" 0.00" 0.10" 52.8° 18.2° 37.5° 35.7% 7.1 MPH 338.4w/m2
04/29/2012 0.19" 0.11" 0.00" 0.11" 60.0° 24.5° 42.9° 41.4% 5.6 MPH 323.5w/m2
04/30/2012 0.22" 0.13" 0.00" 0.13" 68.8° 25.3° 51.0° 35.9% 5.9 MPH 274.3w/m2
Totals: 4.74" 1.52" 0.24" 1.33" 80.6° 6.3° 44.1° 47.1% 5.6 MPH 245.0w/m2